sensor_id;sensor_type;location;lat;lon;timestamp;temperature;humidity
68609;SHT31;55581;46.718;7.690;2023-04-06T00:01:41;2.15;63.39
68609;SHT31;55581;46.718;7.690;2023-04-06T00:04:09;2.16;63.20
68609;SHT31;55581;46.718;7.690;2023-04-06T00:06:34;2.15;63.16
68609;SHT31;55581;46.718;7.690;2023-04-06T00:09:02;2.06;64.09
68609;SHT31;55581;46.718;7.690;2023-04-06T00:11:28;2.08;62.73
68609;SHT31;55581;46.718;7.690;2023-04-06T00:13:53;2.05;63.29
68609;SHT31;55581;46.718;7.690;2023-04-06T00:16:19;2.03;63.31
68609;SHT31;55581;46.718;7.690;2023-04-06T00:18:45;2.01;63.75
68609;SHT31;55581;46.718;7.690;2023-04-06T00:21:13;1.94;63.31
68609;SHT31;55581;46.718;7.690;2023-04-06T00:23:40;1.99;63.39
68609;SHT31;55581;46.718;7.690;2023-04-06T00:26:06;1.98;64.68
68609;SHT31;55581;46.718;7.690;2023-04-06T00:28:31;1.92;64.95
68609;SHT31;55581;46.718;7.690;2023-04-06T00:30:57;1.85;66.00
68609;SHT31;55581;46.718;7.690;2023-04-06T00:33:22;1.91;65.35
68609;SHT31;55581;46.718;7.690;2023-04-06T00:35:48;1.98;64.27
68609;SHT31;55581;46.718;7.690;2023-04-06T00:38:14;2.02;64.50
68609;SHT31;55581;46.718;7.690;2023-04-06T00:40:40;2.06;64.15
68609;SHT31;55581;46.718;7.690;2023-04-06T00:43:06;2.09;64.56
68609;SHT31;55581;46.718;7.690;2023-04-06T00:45:34;2.09;64.60
68609;SHT31;55581;46.718;7.690;2023-04-06T00:47:59;2.05;64.21
68609;SHT31;55581;46.718;7.690;2023-04-06T00:50:25;2.01;64.97
68609;SHT31;55581;46.718;7.690;2023-04-06T00:52:51;1.99;64.88
68609;SHT31;55581;46.718;7.690;2023-04-06T00:55:17;1.95;65.39
68609;SHT31;55581;46.718;7.690;2023-04-06T00:57:43;1.91;65.47
68609;SHT31;55581;46.718;7.690;2023-04-06T01:00:08;1.75;66.60
68609;SHT31;55581;46.718;7.690;2023-04-06T01:02:35;1.79;64.41
68609;SHT31;55581;46.718;7.690;2023-04-06T01:05:01;1.78;64.70
68609;SHT31;55581;46.718;7.690;2023-04-06T01:07:29;1.79;66.41
68609;SHT31;55581;46.718;7.690;2023-04-06T01:09:54;1.77;66.19
68609;SHT31;55581;46.718;7.690;2023-04-06T01:12:20;1.78;65.65
68609;SHT31;55581;46.718;7.690;2023-04-06T01:14:48;1.78;66.12
68609;SHT31;55581;46.718;7.690;2023-04-06T01:17:14;1.79;65.48
68609;SHT31;55581;46.718;7.690;2023-04-06T01:19:39;1.74;65.63
68609;SHT31;55581;46.718;7.690;2023-04-06T01:22:06;1.71;65.76
68609;SHT31;55581;46.718;7.690;2023-04-06T01:24:32;1.68;66.79
68609;SHT31;55581;46.718;7.690;2023-04-06T01:26:57;1.70;66.50
68609;SHT31;55581;46.718;7.690;2023-04-06T01:29:23;1.70;66.36
68609;SHT31;55581;46.718;7.690;2023-04-06T01:31:48;1.70;66.38
68609;SHT31;55581;46.718;7.690;2023-04-06T01:34:14;1.61;66.61
68609;SHT31;55581;46.718;7.690;2023-04-06T01:36:39;1.54;67.51
68609;SHT31;55581;46.718;7.690;2023-04-06T01:39:05;1.54;67.55
68609;SHT31;55581;46.718;7.690;2023-04-06T01:41:32;1.44;68.04
68609;SHT31;55581;46.718;7.690;2023-04-06T01:44:00;1.48;67.35
68609;SHT31;55581;46.718;7.690;2023-04-06T01:46:26;1.46;67.38
68609;SHT31;55581;46.718;7.690;2023-04-06T01:48:51;1.47;66.63
68609;SHT31;55581;46.718;7.690;2023-04-06T01:51:17;1.47;67.67
68609;SHT31;55581;46.718;7.690;2023-04-06T01:53:42;1.51;66.51
68609;SHT31;55581;46.718;7.690;2023-04-06T01:56:08;1.64;66.45
68609;SHT31;55581;46.718;7.690;2023-04-06T01:58:33;1.70;66.32
68609;SHT31;55581;46.718;7.690;2023-04-06T02:00:59;1.79;65.50
68609;SHT31;55581;46.718;7.690;2023-04-06T02:03:24;1.79;65.40
68609;SHT31;55581;46.718;7.690;2023-04-06T02:05:50;1.82;65.11
68609;SHT31;55581;46.718;7.690;2023-04-06T02:08:15;1.79;64.92
68609;SHT31;55581;46.718;7.690;2023-04-06T02:10:40;1.85;65.40
68609;SHT31;55581;46.718;7.690;2023-04-06T02:13:06;1.85;66.49
68609;SHT31;55581;46.718;7.690;2023-04-06T02:15:34;1.86;66.58
68609;SHT31;55581;46.718;7.690;2023-04-06T02:17:59;1.86;67.07
68609;SHT31;55581;46.718;7.690;2023-04-06T02:20:25;1.85;66.93
68609;SHT31;55581;46.718;7.690;2023-04-06T02:22:51;1.77;66.80
68609;SHT31;55581;46.718;7.690;2023-04-06T02:25:16;1.70;68.02
68609;SHT31;55581;46.718;7.690;2023-04-06T02:27:42;1.68;68.18
68609;SHT31;55581;46.718;7.690;2023-04-06T02:30:08;1.58;68.02
68609;SHT31;55581;46.718;7.690;2023-04-06T02:32:33;1.54;67.75
68609;SHT31;55581;46.718;7.690;2023-04-06T02:34:59;1.46;68.76
68609;SHT31;55581;46.718;7.690;2023-04-06T02:37:25;1.46;68.81
68609;SHT31;55581;46.718;7.690;2023-04-06T02:39:53;1.57;68.40
68609;SHT31;55581;46.718;7.690;2023-04-06T02:42:19;1.61;68.66
68609;SHT31;55581;46.718;7.690;2023-04-06T02:44:44;1.63;68.28
68609;SHT31;55581;46.718;7.690;2023-04-06T02:47:10;1.65;67.67
68609;SHT31;55581;46.718;7.690;2023-04-06T02:49:36;1.53;68.36
68609;SHT31;55581;46.718;7.690;2023-04-06T02:52:02;1.47;68.74
68609;SHT31;55581;46.718;7.690;2023-04-06T02:54:27;1.46;69.26
68609;SHT31;55581;46.718;7.690;2023-04-06T02:56:53;1.58;68.31
68609;SHT31;55581;46.718;7.690;2023-04-06T02:59:18;1.75;67.76
68609;SHT31;55581;46.718;7.690;2023-04-06T03:01:46;1.89;66.50
68609;SHT31;55581;46.718;7.690;2023-04-06T03:04:12;1.97;66.49
68609;SHT31;55581;46.718;7.690;2023-04-06T03:06:37;1.97;66.07
68609;SHT31;55581;46.718;7.690;2023-04-06T03:09:03;1.98;66.24
68609;SHT31;55581;46.718;7.690;2023-04-06T03:11:28;1.89;66.92
68609;SHT31;55581;46.718;7.690;2023-04-06T03:13:54;1.81;67.48
68609;SHT31;55581;46.718;7.690;2023-04-06T03:16:20;1.74;67.02
68609;SHT31;55581;46.718;7.690;2023-04-06T03:18:45;1.70;67.23
68609;SHT31;55581;46.718;7.690;2023-04-06T03:21:12;1.64;67.84
68609;SHT31;55581;46.718;7.690;2023-04-06T03:23:38;1.64;68.52
68609;SHT31;55581;46.718;7.690;2023-04-06T03:26:03;1.65;69.22
68609;SHT31;55581;46.718;7.690;2023-04-06T03:28:29;1.57;69.81
68609;SHT31;55581;46.718;7.690;2023-04-06T03:30:54;1.40;71.63
68609;SHT31;55581;46.718;7.690;2023-04-06T03:33:20;1.27;71.93
68609;SHT31;55581;46.718;7.690;2023-04-06T03:35:45;1.19;72.26
68609;SHT31;55581;46.718;7.690;2023-04-06T03:38:11;1.13;72.40
68609;SHT31;55581;46.718;7.690;2023-04-06T03:40:36;1.06;72.49
68609;SHT31;55581;46.718;7.690;2023-04-06T03:43:04;0.99;72.49
68609;SHT31;55581;46.718;7.690;2023-04-06T03:45:29;1.05;72.65
68609;SHT31;55581;46.718;7.690;2023-04-06T03:47:55;0.98;73.22
68609;SHT31;55581;46.718;7.690;2023-04-06T03:50:21;1.06;73.28
68609;SHT31;55581;46.718;7.690;2023-04-06T03:52:46;1.18;72.82
68609;SHT31;55581;46.718;7.690;2023-04-06T03:55:12;1.25;72.73
68609;SHT31;55581;46.718;7.690;2023-04-06T03:57:37;1.25;72.77
68609;SHT31;55581;46.718;7.690;2023-04-06T04:00:03;1.27;73.06
68609;SHT31;55581;46.718;7.690;2023-04-06T04:02:29;1.23;73.23
68609;SHT31;55581;46.718;7.690;2023-04-06T04:04:54;1.20;72.47
68609;SHT31;55581;46.718;7.690;2023-04-06T04:07:20;1.23;72.40
68609;SHT31;55581;46.718;7.690;2023-04-06T04:09:45;1.29;71.59
68609;SHT31;55581;46.718;7.690;2023-04-06T04:12:11;1.47;71.65
68609;SHT31;55581;46.718;7.690;2023-04-06T04:14:36;1.44;71.22
68609;SHT31;55581;46.718;7.690;2023-04-06T04:17:01;1.37;70.82
68609;SHT31;55581;46.718;7.690;2023-04-06T04:19:27;1.27;71.39
68609;SHT31;55581;46.718;7.690;2023-04-06T04:21:52;1.25;71.96
68609;SHT31;55581;46.718;7.690;2023-04-06T04:24:18;1.23;71.44
68609;SHT31;55581;46.718;7.690;2023-04-06T04:26:43;1.20;72.26
68609;SHT31;55581;46.718;7.690;2023-04-06T04:29:09;1.25;72.54
68609;SHT31;55581;46.718;7.690;2023-04-06T04:31:35;1.26;72.94
68609;SHT31;55581;46.718;7.690;2023-04-06T04:34:00;1.27;73.37
68609;SHT31;55581;46.718;7.690;2023-04-06T04:36:26;1.18;73.91
68609;SHT31;55581;46.718;7.690;2023-04-06T04:38:52;1.08;74.18
68609;SHT31;55581;46.718;7.690;2023-04-06T04:41:18;1.01;74.42
68609;SHT31;55581;46.718;7.690;2023-04-06T04:43:44;0.96;73.86
68609;SHT31;55581;46.718;7.690;2023-04-06T04:46:09;1.02;71.58
68609;SHT31;55581;46.718;7.690;2023-04-06T04:48:35;1.01;71.64
68609;SHT31;55581;46.718;7.690;2023-04-06T04:51:01;0.98;70.61
68609;SHT31;55581;46.718;7.690;2023-04-06T04:53:27;1.03;71.27
68609;SHT31;55581;46.718;7.690;2023-04-06T04:55:52;1.05;71.01
68609;SHT31;55581;46.718;7.690;2023-04-06T04:58:20;1.06;70.93
68609;SHT31;55581;46.718;7.690;2023-04-06T05:00:46;1.05;70.84
68609;SHT31;55581;46.718;7.690;2023-04-06T05:03:22;1.06;69.56
68609;SHT31;55581;46.718;7.690;2023-04-06T05:05:48;1.03;69.41
68609;SHT31;55581;46.718;7.690;2023-04-06T05:08:14;1.02;69.52
68609;SHT31;55581;46.718;7.690;2023-04-06T05:10:42;1.03;69.68
68609;SHT31;55581;46.718;7.690;2023-04-06T05:13:07;1.10;68.11
68609;SHT31;55581;46.718;7.690;2023-04-06T05:15:33;1.08;68.52
68609;SHT31;55581;46.718;7.690;2023-04-06T05:18:03;1.06;69.25
68609;SHT31;55581;46.718;7.690;2023-04-06T05:20:29;1.06;69.35
68609;SHT31;55581;46.718;7.690;2023-04-06T05:22:54;1.08;68.54
68609;SHT31;55581;46.718;7.690;2023-04-06T05:25:20;1.13;68.39
68609;SHT31;55581;46.718;7.690;2023-04-06T05:27:45;1.12;68.75
68609;SHT31;55581;46.718;7.690;2023-04-06T05:30:11;1.05;69.15
68609;SHT31;55581;46.718;7.690;2023-04-06T05:32:37;1.12;68.97
68609;SHT31;55581;46.718;7.690;2023-04-06T05:35:02;1.15;68.40
68609;SHT31;55581;46.718;7.690;2023-04-06T05:37:28;1.16;69.08
68609;SHT31;55581;46.718;7.690;2023-04-06T05:39:53;1.16;69.66
68609;SHT31;55581;46.718;7.690;2023-04-06T05:42:19;1.16;70.08
68609;SHT31;55581;46.718;7.690;2023-04-06T05:44:45;1.18;70.42
68609;SHT31;55581;46.718;7.690;2023-04-06T05:47:10;1.20;69.70
68609;SHT31;55581;46.718;7.690;2023-04-06T05:49:36;1.20;69.77
68609;SHT31;55581;46.718;7.690;2023-04-06T05:52:01;1.25;69.10
68609;SHT31;55581;46.718;7.690;2023-04-06T05:54:29;1.32;68.75
68609;SHT31;55581;46.718;7.690;2023-04-06T05:56:57;1.27;68.90
68609;SHT31;55581;46.718;7.690;2023-04-06T05:59:22;1.27;69.34
68609;SHT31;55581;46.718;7.690;2023-04-06T06:01:49;1.30;69.49
68609;SHT31;55581;46.718;7.690;2023-04-06T06:04:15;1.32;69.97
68609;SHT31;55581;46.718;7.690;2023-04-06T06:06:40;1.54;69.18
68609;SHT31;55581;46.718;7.690;2023-04-06T06:09:06;1.51;68.30
68609;SHT31;55581;46.718;7.690;2023-04-06T06:11:31;1.39;68.30
68609;SHT31;55581;46.718;7.690;2023-04-06T06:13:58;1.42;68.32
68609;SHT31;55581;46.718;7.690;2023-04-06T06:16:23;1.39;68.47
68609;SHT31;55581;46.718;7.690;2023-04-06T06:18:49;1.37;68.99
68609;SHT31;55581;46.718;7.690;2023-04-06T06:21:14;1.40;69.92
68609;SHT31;55581;46.718;7.690;2023-04-06T06:23:42;1.48;69.27
68609;SHT31;55581;46.718;7.690;2023-04-06T06:26:08;1.47;69.67
68609;SHT31;55581;46.718;7.690;2023-04-06T06:28:33;1.54;69.80
68609;SHT31;55581;46.718;7.690;2023-04-06T06:30:59;1.58;70.10
68609;SHT31;55581;46.718;7.690;2023-04-06T06:33:26;1.60;72.06
68609;SHT31;55581;46.718;7.690;2023-04-06T06:35:54;1.67;72.88
68609;SHT31;55581;46.718;7.690;2023-04-06T06:38:19;1.70;72.35
68609;SHT31;55581;46.718;7.690;2023-04-06T06:40:46;1.75;72.36
68609;SHT31;55581;46.718;7.690;2023-04-06T06:43:11;1.74;73.85
68609;SHT31;55581;46.718;7.690;2023-04-06T06:45:39;1.79;74.45
68609;SHT31;55581;46.718;7.690;2023-04-06T06:48:04;1.84;75.22
68609;SHT31;55581;46.718;7.690;2023-04-06T06:50:30;1.85;74.60
68609;SHT31;55581;46.718;7.690;2023-04-06T06:52:55;1.94;73.92
68609;SHT31;55581;46.718;7.690;2023-04-06T06:55:21;2.09;73.86
68609;SHT31;55581;46.718;7.690;2023-04-06T06:57:46;2.28;74.01
68609;SHT31;55581;46.718;7.690;2023-04-06T07:00:13;2.47;73.65
68609;SHT31;55581;46.718;7.690;2023-04-06T07:02:41;2.70;72.08
68609;SHT31;55581;46.718;7.690;2023-04-06T07:05:08;2.92;71.28
68609;SHT31;55581;46.718;7.690;2023-04-06T07:07:34;3.09;70.28
68609;SHT31;55581;46.718;7.690;2023-04-06T07:10:00;3.32;70.63
68609;SHT31;55581;46.718;7.690;2023-04-06T07:12:26;3.44;68.79
68609;SHT31;55581;46.718;7.690;2023-04-06T07:14:51;3.74;68.97
68609;SHT31;55581;46.718;7.690;2023-04-06T07:17:17;3.88;68.25
68609;SHT31;55581;46.718;7.690;2023-04-06T07:19:42;4.10;67.07
68609;SHT31;55581;46.718;7.690;2023-04-06T07:22:08;4.17;67.70
68609;SHT31;55581;46.718;7.690;2023-04-06T07:24:33;4.25;66.56
68609;SHT31;55581;46.718;7.690;2023-04-06T07:26:59;4.36;66.99
68609;SHT31;55581;46.718;7.690;2023-04-06T07:29:26;4.60;65.60
68609;SHT31;55581;46.718;7.690;2023-04-06T07:31:51;4.75;65.07
68609;SHT31;55581;46.718;7.690;2023-04-06T07:34:17;4.88;65.22
68609;SHT31;55581;46.718;7.690;2023-04-06T07:36:42;5.01;64.93
68609;SHT31;55581;46.718;7.690;2023-04-06T07:39:08;5.22;63.92
68609;SHT31;55581;46.718;7.690;2023-04-06T07:41:34;5.33;63.33
68609;SHT31;55581;46.718;7.690;2023-04-06T07:44:07;5.44;63.65
68609;SHT31;55581;46.718;7.690;2023-04-06T07:46:33;5.47;62.89
68609;SHT31;55581;46.718;7.690;2023-04-06T07:48:59;5.44;63.49
68609;SHT31;55581;46.718;7.690;2023-04-06T07:51:28;5.48;63.49
68609;SHT31;55581;46.718;7.690;2023-04-06T07:53:53;5.54;62.35
68609;SHT31;55581;46.718;7.690;2023-04-06T07:56:19;5.70;61.86
68609;SHT31;55581;46.718;7.690;2023-04-06T07:58:46;5.85;59.92
68609;SHT31;55581;46.718;7.690;2023-04-06T08:01:11;5.82;59.57
68609;SHT31;55581;46.718;7.690;2023-04-06T08:03:37;6.03;59.86
68609;SHT31;55581;46.718;7.690;2023-04-06T08:06:02;6.28;60.15
68609;SHT31;55581;46.718;7.690;2023-04-06T08:08:28;6.32;57.94
68609;SHT31;55581;46.718;7.690;2023-04-06T08:10:57;6.60;57.50
68609;SHT31;55581;46.718;7.690;2023-04-06T08:13:23;6.71;58.53
68609;SHT31;55581;46.718;7.690;2023-04-06T08:15:51;6.67;60.48
68609;SHT31;55581;46.718;7.690;2023-04-06T08:18:18;6.89;61.63
68609;SHT31;55581;46.718;7.690;2023-04-06T08:20:44;6.83;60.07
68609;SHT31;55581;46.718;7.690;2023-04-06T08:23:10;7.05;61.60
68609;SHT31;55581;46.718;7.690;2023-04-06T08:25:36;7.20;59.17
68609;SHT31;55581;46.718;7.690;2023-04-06T08:28:03;6.98;59.99
68609;SHT31;55581;46.718;7.690;2023-04-06T08:30:29;6.99;60.54
68609;SHT31;55581;46.718;7.690;2023-04-06T08:32:58;7.16;61.18
68609;SHT31;55581;46.718;7.690;2023-04-06T08:35:26;7.09;59.37
68609;SHT31;55581;46.718;7.690;2023-04-06T08:37:52;7.26;57.56
68609;SHT31;55581;46.718;7.690;2023-04-06T08:40:17;7.43;56.64
68609;SHT31;55581;46.718;7.690;2023-04-06T08:42:49;7.59;57.46
68609;SHT31;55581;46.718;7.690;2023-04-06T08:45:16;7.63;55.12
68609;SHT31;55581;46.718;7.690;2023-04-06T08:47:43;7.84;51.44
68609;SHT31;55581;46.718;7.690;2023-04-06T08:50:10;7.94;51.18
68609;SHT31;55581;46.718;7.690;2023-04-06T08:52:37;8.12;54.00
68609;SHT31;55581;46.718;7.690;2023-04-06T08:55:04;8.19;54.35
68609;SHT31;55581;46.718;7.690;2023-04-06T08:57:33;8.32;51.17
68609;SHT31;55581;46.718;7.690;2023-04-06T09:00:00;8.34;49.02
68609;SHT31;55581;46.718;7.690;2023-04-06T09:02:29;8.49;48.17
68609;SHT31;55581;46.718;7.690;2023-04-06T09:04:56;8.52;49.29
68609;SHT31;55581;46.718;7.690;2023-04-06T09:07:22;8.60;48.25
68609;SHT31;55581;46.718;7.690;2023-04-06T09:09:47;8.65;46.28
68609;SHT31;55581;46.718;7.690;2023-04-06T09:12:30;8.74;47.13
68609;SHT31;55581;46.718;7.690;2023-04-06T09:14:58;8.88;48.10
68609;SHT31;55581;46.718;7.690;2023-04-06T09:17:29;8.92;46.56
68609;SHT31;55581;46.718;7.690;2023-04-06T09:19:57;8.71;44.98
68609;SHT31;55581;46.718;7.690;2023-04-06T09:22:24;8.67;48.13
68609;SHT31;55581;46.718;7.690;2023-04-06T09:24:54;8.89;48.25
68609;SHT31;55581;46.718;7.690;2023-04-06T09:27:30;8.88;45.77
68609;SHT31;55581;46.718;7.690;2023-04-06T09:30:12;9.09;47.26
68609;SHT31;55581;46.718;7.690;2023-04-06T09:32:57;9.23;49.94
68609;SHT31;55581;46.718;7.690;2023-04-06T09:35:24;9.27;46.64
68609;SHT31;55581;46.718;7.690;2023-04-06T09:37:53;9.22;46.81
68609;SHT31;55581;46.718;7.690;2023-04-06T09:40:19;9.32;48.12
68609;SHT31;55581;46.718;7.690;2023-04-06T09:42:45;9.33;49.28
68609;SHT31;55581;46.718;7.690;2023-04-06T09:45:12;9.48;50.70
68609;SHT31;55581;46.718;7.690;2023-04-06T09:47:40;9.63;52.14
68609;SHT31;55581;46.718;7.690;2023-04-06T09:50:09;9.63;51.46
68609;SHT31;55581;46.718;7.690;2023-04-06T09:52:51;9.90;50.02
68609;SHT31;55581;46.718;7.690;2023-04-06T09:55:48;9.74;48.68
68609;SHT31;55581;46.718;7.690;2023-04-06T09:58:17;9.92;49.18
68609;SHT31;55581;46.718;7.690;2023-04-06T10:01:08;10.08;49.33
68609;SHT31;55581;46.718;7.690;2023-04-06T10:06:21;10.30;50.44
68609;SHT31;55581;46.718;7.690;2023-04-06T10:08:49;10.42;48.99
68609;SHT31;55581;46.718;7.690;2023-04-06T10:11:16;10.50;48.95
68609;SHT31;55581;46.718;7.690;2023-04-06T10:13:41;10.63;49.06
68609;SHT31;55581;46.718;7.690;2023-04-06T10:16:08;10.67;45.92
68609;SHT31;55581;46.718;7.690;2023-04-06T10:18:35;10.83;44.59
68609;SHT31;55581;46.718;7.690;2023-04-06T10:21:08;10.81;43.82
68609;SHT31;55581;46.718;7.690;2023-04-06T10:23:40;11.01;44.77
68609;SHT31;55581;46.718;7.690;2023-04-06T10:26:13;10.97;43.52
68609;SHT31;55581;46.718;7.690;2023-04-06T10:28:41;11.21;42.75
68609;SHT31;55581;46.718;7.690;2023-04-06T10:31:07;11.28;44.47
68609;SHT31;55581;46.718;7.690;2023-04-06T10:33:33;11.66;45.57
68609;SHT31;55581;46.718;7.690;2023-04-06T10:36:09;12.04;44.35
68609;SHT31;55581;46.718;7.690;2023-04-06T10:38:39;12.43;45.32
68609;SHT31;55581;46.718;7.690;2023-04-06T10:41:06;12.49;44.90
68609;SHT31;55581;46.718;7.690;2023-04-06T10:43:38;12.57;42.33
68609;SHT31;55581;46.718;7.690;2023-04-06T10:46:05;12.36;42.85
68609;SHT31;55581;46.718;7.690;2023-04-06T10:51:11;11.65;44.35
68609;SHT31;55581;46.718;7.690;2023-04-06T10:53:38;11.66;45.55
68609;SHT31;55581;46.718;7.690;2023-04-06T10:56:04;11.83;42.13
68609;SHT31;55581;46.718;7.690;2023-04-06T10:58:29;11.53;43.48
68609;SHT31;55581;46.718;7.690;2023-04-06T11:00:56;11.46;43.31
68609;SHT31;55581;46.718;7.690;2023-04-06T11:03:23;11.52;44.47
68609;SHT31;55581;46.718;7.690;2023-04-06T11:05:50;11.77;41.72
68609;SHT31;55581;46.718;7.690;2023-04-06T11:08:28;12.28;43.25
68609;SHT31;55581;46.718;7.690;2023-04-06T11:11:08;12.38;42.16
68609;SHT31;55581;46.718;7.690;2023-04-06T11:13:59;12.29;40.71
68609;SHT31;55581;46.718;7.690;2023-04-06T11:16:33;12.15;40.17
68609;SHT31;55581;46.718;7.690;2023-04-06T11:19:03;11.85;42.15
68609;SHT31;55581;46.718;7.690;2023-04-06T11:24:24;11.69;42.18
68609;SHT31;55581;46.718;7.690;2023-04-06T11:26:53;11.81;43.96
68609;SHT31;55581;46.718;7.690;2023-04-06T11:29:21;12.25;43.41
68609;SHT31;55581;46.718;7.690;2023-04-06T11:31:53;12.10;43.10
68609;SHT31;55581;46.718;7.690;2023-04-06T11:34:21;12.22;42.34
68609;SHT31;55581;46.718;7.690;2023-04-06T11:36:49;12.40;40.23
68609;SHT31;55581;46.718;7.690;2023-04-06T11:39:19;12.25;41.29
68609;SHT31;55581;46.718;7.690;2023-04-06T11:41:52;12.33;40.49
68609;SHT31;55581;46.718;7.690;2023-04-06T11:47:07;12.12;41.41
68609;SHT31;55581;46.718;7.690;2023-04-06T11:49:36;12.61;41.81
68609;SHT31;55581;46.718;7.690;2023-04-06T11:52:02;12.50;41.16
68609;SHT31;55581;46.718;7.690;2023-04-06T11:54:36;12.52;39.82
68609;SHT31;55581;46.718;7.690;2023-04-06T11:57:03;12.57;38.99
68609;SHT31;55581;46.718;7.690;2023-04-06T11:59:29;12.63;39.23
68609;SHT31;55581;46.718;7.690;2023-04-06T12:01:57;13.12;38.37
68609;SHT31;55581;46.718;7.690;2023-04-06T12:04:23;13.32;36.62
68609;SHT31;55581;46.718;7.690;2023-04-06T12:06:49;13.18;37.01
68609;SHT31;55581;46.718;7.690;2023-04-06T12:09:15;12.94;37.92
68609;SHT31;55581;46.718;7.690;2023-04-06T12:11:41;12.84;37.68
68609;SHT31;55581;46.718;7.690;2023-04-06T12:14:07;12.73;38.18
68609;SHT31;55581;46.718;7.690;2023-04-06T12:16:33;12.88;37.17
68609;SHT31;55581;46.718;7.690;2023-04-06T12:18:59;13.08;36.87
68609;SHT31;55581;46.718;7.690;2023-04-06T12:21:27;13.45;36.76
68609;SHT31;55581;46.718;7.690;2023-04-06T12:23:53;13.29;36.82
68609;SHT31;55581;46.718;7.690;2023-04-06T12:26:18;13.49;39.18
68609;SHT31;55581;46.718;7.690;2023-04-06T12:28:46;13.39;36.80
68609;SHT31;55581;46.718;7.690;2023-04-06T12:31:17;13.26;36.10
68609;SHT31;55581;46.718;7.690;2023-04-06T12:33:46;13.29;37.36
68609;SHT31;55581;46.718;7.690;2023-04-06T12:36:15;13.29;39.73
68609;SHT31;55581;46.718;7.690;2023-04-06T12:38:44;13.45;38.67
68609;SHT31;55581;46.718;7.690;2023-04-06T12:41:11;13.58;37.88
68609;SHT31;55581;46.718;7.690;2023-04-06T12:43:37;13.51;39.87
68609;SHT31;55581;46.718;7.690;2023-04-06T12:46:02;13.59;37.91
68609;SHT31;55581;46.718;7.690;2023-04-06T12:48:28;13.83;38.08
68609;SHT31;55581;46.718;7.690;2023-04-06T12:50:55;13.65;37.90
68609;SHT31;55581;46.718;7.690;2023-04-06T12:53:21;13.19;38.09
68609;SHT31;55581;46.718;7.690;2023-04-06T12:55:46;13.53;38.47
68609;SHT31;55581;46.718;7.690;2023-04-06T12:58:11;13.11;38.70
68609;SHT31;55581;46.718;7.690;2023-04-06T13:00:37;12.95;38.40
68609;SHT31;55581;46.718;7.690;2023-04-06T13:03:03;13.05;36.97
68609;SHT31;55581;46.718;7.690;2023-04-06T13:05:28;13.11;36.58
68609;SHT31;55581;46.718;7.690;2023-04-06T13:07:54;13.14;36.61
68609;SHT31;55581;46.718;7.690;2023-04-06T13:10:20;13.15;35.12
68609;SHT31;55581;46.718;7.690;2023-04-06T13:12:45;13.39;35.82
68609;SHT31;55581;46.718;7.690;2023-04-06T13:15:15;13.84;34.55
68609;SHT31;55581;46.718;7.690;2023-04-06T13:17:41;13.67;32.43
68609;SHT31;55581;46.718;7.690;2023-04-06T13:20:06;13.60;35.22
68609;SHT31;55581;46.718;7.690;2023-04-06T13:22:34;13.83;34.37
68609;SHT31;55581;46.718;7.690;2023-04-06T13:25:00;13.84;33.09
68609;SHT31;55581;46.718;7.690;2023-04-06T13:27:25;14.07;32.59
68609;SHT31;55581;46.718;7.690;2023-04-06T13:29:52;14.14;33.67
68609;SHT31;55581;46.718;7.690;2023-04-06T13:32:18;13.87;32.60
68609;SHT31;55581;46.718;7.690;2023-04-06T13:34:43;14.35;33.83
68609;SHT31;55581;46.718;7.690;2023-04-06T13:37:12;14.11;33.67
68609;SHT31;55581;46.718;7.690;2023-04-06T13:39:38;13.90;32.22
68609;SHT31;55581;46.718;7.690;2023-04-06T13:42:03;14.21;31.97
68609;SHT31;55581;46.718;7.690;2023-04-06T13:44:29;14.32;32.92
68609;SHT31;55581;46.718;7.690;2023-04-06T13:46:56;14.15;30.68
68609;SHT31;55581;46.718;7.690;2023-04-06T13:49:22;14.35;31.43
68609;SHT31;55581;46.718;7.690;2023-04-06T13:51:48;14.34;30.84
68609;SHT31;55581;46.718;7.690;2023-04-06T13:54:13;14.25;30.65
68609;SHT31;55581;46.718;7.690;2023-04-06T13:56:39;14.11;30.83
68609;SHT31;55581;46.718;7.690;2023-04-06T13:59:04;14.01;31.75
68609;SHT31;55581;46.718;7.690;2023-04-06T14:01:30;14.10;30.64
68609;SHT31;55581;46.718;7.690;2023-04-06T14:03:55;13.83;30.58
68609;SHT31;55581;46.718;7.690;2023-04-06T14:06:21;13.84;30.22
68609;SHT31;55581;46.718;7.690;2023-04-06T14:08:46;13.77;29.72
68609;SHT31;55581;46.718;7.690;2023-04-06T14:11:12;13.74;29.23
68609;SHT31;55581;46.718;7.690;2023-04-06T14:13:39;13.65;29.44
68609;SHT31;55581;46.718;7.690;2023-04-06T14:16:05;13.66;29.25
68609;SHT31;55581;46.718;7.690;2023-04-06T14:18:30;13.62;29.20
68609;SHT31;55581;46.718;7.690;2023-04-06T14:20:59;13.65;30.52
68609;SHT31;55581;46.718;7.690;2023-04-06T14:23:27;13.73;30.22
68609;SHT31;55581;46.718;7.690;2023-04-06T14:26:04;13.67;31.65
68609;SHT31;55581;46.718;7.690;2023-04-06T14:28:34;13.60;28.86
68609;SHT31;55581;46.718;7.690;2023-04-06T14:31:00;13.59;29.32
68609;SHT31;55581;46.718;7.690;2023-04-06T14:33:28;13.74;30.21
68609;SHT31;55581;46.718;7.690;2023-04-06T14:35:53;14.03;28.55
68609;SHT31;55581;46.718;7.690;2023-04-06T14:38:19;14.10;29.15
68609;SHT31;55581;46.718;7.690;2023-04-06T14:40:44;14.07;29.21
68609;SHT31;55581;46.718;7.690;2023-04-06T14:43:10;13.93;27.28
68609;SHT31;55581;46.718;7.690;2023-04-06T14:45:37;13.66;26.97
68609;SHT31;55581;46.718;7.690;2023-04-06T14:48:04;13.88;26.44
68609;SHT31;55581;46.718;7.690;2023-04-06T14:50:32;14.01;26.08
68609;SHT31;55581;46.718;7.690;2023-04-06T14:52:58;14.17;26.90
68609;SHT31;55581;46.718;7.690;2023-04-06T14:55:24;14.26;26.51
68609;SHT31;55581;46.718;7.690;2023-04-06T14:57:49;14.56;26.51
68609;SHT31;55581;46.718;7.690;2023-04-06T15:00:15;14.55;27.13
68609;SHT31;55581;46.718;7.690;2023-04-06T15:02:41;14.66;25.55
68609;SHT31;55581;46.718;7.690;2023-04-06T15:05:08;14.18;25.38
68609;SHT31;55581;46.718;7.690;2023-04-06T15:07:34;14.11;26.08
68609;SHT31;55581;46.718;7.690;2023-04-06T15:09:59;14.03;26.93
68609;SHT31;55581;46.718;7.690;2023-04-06T15:12:25;13.79;26.32
68609;SHT31;55581;46.718;7.690;2023-04-06T15:14:50;13.46;25.97
68609;SHT31;55581;46.718;7.690;2023-04-06T15:17:16;13.60;27.70
68609;SHT31;55581;46.718;7.690;2023-04-06T15:19:41;13.83;27.25
68609;SHT31;55581;46.718;7.690;2023-04-06T15:22:07;13.86;26.43
68609;SHT31;55581;46.718;7.690;2023-04-06T15:24:32;13.77;26.79
68609;SHT31;55581;46.718;7.690;2023-04-06T15:26:58;13.66;26.42
68609;SHT31;55581;46.718;7.690;2023-04-06T15:29:23;13.73;27.14
68609;SHT31;55581;46.718;7.690;2023-04-06T15:31:50;13.87;27.34
68609;SHT31;55581;46.718;7.690;2023-04-06T15:34:15;13.80;27.04
68609;SHT31;55581;46.718;7.690;2023-04-06T15:36:41;14.01;27.13
68609;SHT31;55581;46.718;7.690;2023-04-06T15:39:09;14.14;27.26
68609;SHT31;55581;46.718;7.690;2023-04-06T15:41:35;14.15;26.06
68609;SHT31;55581;46.718;7.690;2023-04-06T15:44:00;14.18;27.50
68609;SHT31;55581;46.718;7.690;2023-04-06T15:46:26;14.10;26.52
68609;SHT31;55581;46.718;7.690;2023-04-06T15:48:52;13.98;26.16